createdAt,value
2023-04-14T00:00:21.430Z,72.96
2023-04-14T00:02:49.637Z,72.72
2023-04-14T00:05:17.994Z,72.80
2023-04-14T00:07:46.597Z,73.01
2023-04-14T00:10:14.710Z,73.29
2023-04-14T00:12:42.823Z,73.99
2023-04-14T00:15:12.123Z,74.33
2023-04-14T00:17:41.583Z,74.20
2023-04-14T00:20:11.105Z,74.31
2023-04-14T00:22:39.310Z,74.21
2023-04-14T00:25:08.089Z,74.26
2023-04-14T00:27:36.217Z,74.31
2023-04-14T00:30:05.239Z,74.40
2023-04-14T00:32:33.410Z,75.05
2023-04-14T00:35:03.619Z,75.20
2023-04-14T00:37:31.816Z,74.94
2023-04-14T00:39:59.899Z,74.66
2023-04-14T00:42:28.022Z,74.46
2023-04-14T00:44:56.147Z,74.54
2023-04-14T00:47:24.460Z,75.26
2023-04-14T00:49:52.980Z,75.46
2023-04-14T00:52:24.600Z,75.42
2023-04-14T00:54:52.916Z,75.60
2023-04-14T00:57:21.260Z,75.87
2023-04-14T00:59:49.510Z,75.97
2023-04-14T01:02:17.724Z,75.82
2023-04-14T01:04:54.330Z,76.03
2023-04-14T01:07:28.184Z,76.19
2023-04-14T01:09:58.315Z,75.93
2023-04-14T01:12:56.238Z,75.51
2023-04-14T01:15:34.527Z,74.80
2023-04-14T01:18:15.856Z,74.65
2023-04-14T01:20:51.185Z,75.46
2023-04-14T01:23:27.379Z,75.41
2023-04-14T01:26:21.557Z,74.81
2023-04-14T01:29:53.360Z,74.99
2023-04-14T01:32:28.319Z,74.76
2023-04-14T01:35:05.662Z,75.00
2023-04-14T01:37:42.329Z,74.97
2023-04-14T01:40:16.720Z,75.08
2023-04-14T01:42:50.917Z,74.89
2023-04-14T01:45:25.659Z,74.95
2023-04-14T01:47:56.857Z,75.16
2023-04-14T01:50:28.613Z,75.35
2023-04-14T01:52:58.828Z,75.01
2023-04-14T01:55:31.958Z,74.09
2023-04-14T01:58:03.649Z,72.94
2023-04-14T02:00:33.109Z,73.41
2023-04-14T02:03:06.248Z,73.41
2023-04-14T02:05:39.325Z,73.11
2023-04-14T02:08:13.491Z,73.36
2023-04-14T02:10:46.882Z,73.68
2023-04-14T02:13:17.786Z,74.27
2023-04-14T02:15:49.026Z,73.80
2023-04-14T02:18:23.151Z,73.02
2023-04-14T02:20:55.018Z,73.29
2023-04-14T02:23:23.356Z,73.08
2023-04-14T02:25:56.785Z,73.52
2023-04-14T02:28:31.184Z,73.75
2023-04-14T02:31:04.490Z,74.20
2023-04-14T02:33:39.390Z,73.88
2023-04-14T02:36:17.926Z,73.95
2023-04-14T02:38:53.338Z,74.50
2023-04-14T02:41:26.374Z,74.18
2023-04-14T02:44:04.988Z,73.85
2023-04-14T02:46:38.514Z,73.38
2023-04-14T02:49:14.432Z,73.97
2023-04-14T02:51:46.429Z,73.46
2023-04-14T02:54:16.366Z,73.43
2023-04-14T02:56:45.410Z,73.31
2023-04-14T02:59:14.684Z,73.82
2023-04-14T03:01:44.606Z,73.96
2023-04-14T03:04:16.384Z,74.02
2023-04-14T03:06:46.035Z,73.65
2023-04-14T03:09:15.914Z,73.92
2023-04-14T03:11:46.222Z,74.53
2023-04-14T03:14:15.577Z,74.94
2023-04-14T03:16:44.664Z,75.50
2023-04-14T03:19:15.753Z,75.15
2023-04-14T03:21:44.272Z,75.00
2023-04-14T03:24:15.589Z,75.31
2023-04-14T03:26:47.090Z,75.56
2023-04-14T03:29:19.188Z,75.89
2023-04-14T03:31:48.938Z,75.33
2023-04-14T03:34:21.470Z,76.05
2023-04-14T03:36:54.488Z,76.50
2023-04-14T03:39:27.294Z,76.48
2023-04-14T03:41:58.079Z,76.42
2023-04-14T03:44:31.936Z,76.20
2023-04-14T03:47:03.467Z,76.20
2023-04-14T03:49:36.413Z,75.68
2023-04-14T03:52:13.618Z,75.12
2023-04-14T03:54:44.978Z,75.96
2023-04-14T03:57:17.707Z,76.18
2023-04-14T03:59:50.547Z,75.75
2023-04-14T04:02:20.682Z,76.04
2023-04-14T04:04:51.535Z,75.37
2023-04-14T04:07:22.328Z,75.27
2023-04-14T04:09:52.607Z,75.86
2023-04-14T04:12:23.692Z,75.47
2023-04-14T04:14:51.904Z,75.31
2023-04-14T04:17:24.649Z,75.79
2023-04-14T04:19:58.440Z,76.49
2023-04-14T04:22:29.528Z,76.44
2023-04-14T04:24:58.983Z,76.78
2023-04-14T04:27:28.676Z,76.99
2023-04-14T04:29:57.086Z,76.89
2023-04-14T04:32:25.609Z,76.85
2023-04-14T04:34:56.672Z,77.24
2023-04-14T04:37:28.670Z,77.36
2023-04-14T04:39:58.838Z,77.37
2023-04-14T04:42:27.050Z,77.13
2023-04-14T04:44:55.233Z,77.04
2023-04-14T04:47:23.399Z,76.81
2023-04-14T04:49:51.573Z,75.57
2023-04-14T04:52:20.988Z,74.27
2023-04-14T04:54:52.325Z,75.50
2023-04-14T04:57:20.524Z,75.87
2023-04-14T04:59:48.914Z,76.13
2023-04-14T05:02:17.403Z,76.53
2023-04-14T05:04:45.721Z,75.82
2023-04-14T05:07:13.856Z,75.65
2023-04-14T05:09:43.355Z,76.10
2023-04-14T05:12:11.841Z,76.42
2023-04-14T05:14:39.946Z,76.51
2023-04-14T05:17:08.076Z,76.34
2023-04-14T05:19:36.345Z,75.75
2023-04-14T05:22:04.483Z,76.03
2023-04-14T05:24:32.595Z,76.15
2023-04-14T05:27:13.695Z,74.80
2023-04-14T05:29:43.023Z,74.63
2023-04-14T05:32:12.844Z,73.75
2023-04-14T05:34:41.080Z,73.71
2023-04-14T05:37:09.248Z,73.31
2023-04-14T05:39:37.545Z,74.18
2023-04-14T05:42:07.115Z,74.22
2023-04-14T05:44:35.215Z,74.06
2023-04-14T05:47:03.778Z,73.85
2023-04-14T05:49:32.354Z,72.90
2023-04-14T05:52:00.653Z,73.89
2023-04-14T05:54:28.749Z,74.33
2023-04-14T05:56:57.609Z,73.72
2023-04-14T05:59:27.269Z,73.30
2023-04-14T06:01:55.534Z,73.36
2023-04-14T06:04:24.006Z,73.78
2023-04-14T06:06:52.504Z,72.43
2023-04-14T06:09:20.658Z,72.58
2023-04-14T06:11:48.753Z,71.80
2023-04-14T06:14:16.920Z,71.52
2023-04-14T06:16:46.469Z,71.50
2023-04-14T06:19:14.625Z,72.34
2023-04-14T06:21:42.766Z,72.46
2023-04-14T06:24:11.006Z,73.06
2023-04-14T06:26:39.114Z,73.73
2023-04-14T06:29:07.905Z,73.50
2023-04-14T06:31:36.373Z,73.24
2023-04-14T06:34:05.872Z,72.83
2023-04-14T06:36:33.986Z,72.92
2023-04-14T06:39:02.731Z,72.52
2023-04-14T06:41:30.871Z,72.63
2023-04-14T06:43:58.940Z,72.97
2023-04-14T06:46:27.092Z,72.36
2023-04-14T06:48:55.299Z,71.03
2023-04-14T06:51:24.679Z,71.65
2023-04-14T06:53:52.690Z,72.94
2023-04-14T06:56:20.817Z,72.57
2023-04-14T06:58:48.886Z,72.79
2023-04-14T07:01:17.107Z,72.27
2023-04-14T07:03:45.677Z,71.22
2023-04-14T07:06:17.118Z,70.97
2023-04-14T07:08:46.896Z,70.89
2023-04-14T07:11:14.968Z,70.07
2023-04-14T07:13:43.230Z,70.49
2023-04-14T07:16:11.333Z,69.92
2023-04-14T07:18:39.616Z,71.08
2023-04-14T07:21:07.896Z,71.06
2023-04-14T07:23:36.050Z,70.89
2023-04-14T07:26:06.062Z,70.42
2023-04-14T07:28:34.378Z,70.42
2023-04-14T07:31:09.843Z,71.08
2023-04-14T07:33:38.384Z,70.79
2023-04-14T07:36:07.174Z,70.99
2023-04-14T07:38:37.038Z,71.25
2023-04-14T07:41:08.252Z,70.11
2023-04-14T07:43:36.353Z,69.86
2023-04-14T07:46:05.798Z,69.70
2023-04-14T07:48:34.614Z,69.38
2023-04-14T07:51:03.208Z,69.27
2023-04-14T07:53:32.115Z,69.65
2023-04-14T07:56:00.862Z,69.92
2023-04-14T07:58:30.282Z,69.23
2023-04-14T08:00:58.601Z,68.80
2023-04-14T08:03:26.950Z,68.41
2023-04-14T08:05:55.347Z,69.31
2023-04-14T08:08:23.603Z,70.08
2023-04-14T08:10:51.777Z,68.96
2023-04-14T08:13:19.853Z,68.85
2023-04-14T08:15:49.340Z,68.75
2023-04-14T08:18:18.435Z,67.37
2023-04-14T08:20:46.522Z,67.21
2023-04-14T08:23:14.588Z,68.33
2023-04-14T08:25:43.242Z,67.67
2023-04-14T08:28:11.273Z,67.13
2023-04-14T08:30:39.544Z,65.55
2023-04-14T08:33:08.980Z,65.58
2023-04-14T08:35:42.293Z,66.01
2023-04-14T08:38:11.455Z,66.10
2023-04-14T08:40:42.223Z,66.23
2023-04-14T08:43:13.907Z,65.53
2023-04-14T08:45:44.431Z,65.69
2023-04-14T08:48:20.426Z,64.90
2023-04-14T08:51:01.243Z,65.57
2023-04-14T08:53:33.424Z,64.92
2023-04-14T08:56:05.969Z,65.37
2023-04-14T08:58:34.049Z,64.60
2023-04-14T09:01:04.432Z,64.09
2023-04-14T09:03:35.689Z,63.31
2023-04-14T09:06:05.262Z,62.98
2023-04-14T09:08:34.692Z,62.31
2023-04-14T09:11:03.509Z,61.62
2023-04-14T09:13:32.357Z,61.52
2023-04-14T09:16:01.684Z,61.67
2023-04-14T09:18:31.417Z,61.77
2023-04-14T09:21:31.264Z,62.04
2023-04-14T09:23:52.502Z,62.79
2023-04-14T09:26:20.654Z,62.06
2023-04-14T09:28:48.690Z,62.63
2023-04-14T09:31:17.429Z,60.80
2023-04-14T09:33:50.182Z,61.66
2023-04-14T09:36:25.793Z,61.79
2023-04-14T09:38:54.046Z,61.05
2023-04-14T09:41:25.874Z,60.14
2023-04-14T09:43:54.205Z,60.28
2023-04-14T09:46:22.526Z,60.11
2023-04-14T09:48:55.515Z,59.58
2023-04-14T09:51:28.928Z,60.29
2023-04-14T09:54:04.868Z,60.71
2023-04-14T09:56:33.594Z,57.67
2023-04-14T09:59:03.822Z,58.84
2023-04-14T10:01:34.884Z,59.24
2023-04-14T10:04:03.904Z,59.67
2023-04-14T10:06:33.655Z,60.25
2023-04-14T10:09:02.465Z,60.70
2023-04-14T10:11:33.433Z,58.23
2023-04-14T10:14:04.623Z,58.37
2023-04-14T10:16:33.628Z,58.49
2023-04-14T10:19:02.687Z,58.11
2023-04-14T10:21:33.690Z,57.50
2023-04-14T10:24:02.773Z,59.29
2023-04-14T10:26:31.233Z,61.63
2023-04-14T10:29:02.048Z,62.44
2023-04-14T10:31:35.728Z,63.04
2023-04-14T10:34:10.597Z,63.63
2023-04-14T10:36:40.754Z,64.92
2023-04-14T10:39:10.968Z,64.74
2023-04-14T10:41:48.265Z,65.11
2023-04-14T10:44:29.316Z,66.00
2023-04-14T10:46:58.340Z,66.81
2023-04-14T10:49:31.593Z,66.58
2023-04-14T10:52:03.666Z,67.87
2023-04-14T10:54:50.986Z,68.38
2023-04-14T10:57:20.037Z,70.08
2023-04-14T10:59:49.000Z,70.30
2023-04-14T11:02:28.760Z,71.06
2023-04-14T11:05:06.430Z,71.48
2023-04-14T11:07:45.791Z,73.15
2023-04-14T11:10:37.122Z,72.06
2023-04-14T11:13:07.728Z,72.32
2023-04-14T11:15:50.597Z,69.61
2023-04-14T11:18:22.803Z,68.83
2023-04-14T11:20:53.875Z,68.04
2023-04-14T11:23:29.669Z,67.19
2023-04-14T11:25:58.526Z,66.20
2023-04-14T11:28:31.317Z,65.42
2023-04-14T11:31:01.842Z,65.35
2023-04-14T11:33:30.948Z,65.96
2023-04-14T11:35:59.807Z,66.67
2023-04-14T11:38:29.690Z,66.56
2023-04-14T11:40:57.988Z,65.91
2023-04-14T11:43:26.388Z,65.83
2023-04-14T11:45:54.639Z,64.04
2023-04-14T11:48:22.879Z,64.95
2023-04-14T11:50:52.108Z,65.96
2023-04-14T11:53:21.123Z,66.82
2023-04-14T11:55:53.866Z,65.41
2023-04-14T11:58:24.523Z,66.35
2023-04-14T12:00:55.950Z,67.48
2023-04-14T12:03:29.195Z,65.06
2023-04-14T12:05:59.789Z,64.27
2023-04-14T12:08:32.263Z,63.80
2023-04-14T12:11:14.153Z,64.33
2023-04-14T12:13:43.224Z,61.94
2023-04-14T12:16:12.145Z,61.24
2023-04-14T12:18:40.620Z,61.22
2023-04-14T12:21:11.794Z,61.43
2023-04-14T12:23:41.300Z,61.67
2023-04-14T12:26:13.075Z,60.77
2023-04-14T12:28:42.227Z,60.94
2023-04-14T12:31:12.215Z,62.62
2023-04-14T12:33:40.417Z,63.33
2023-04-14T12:36:13.431Z,64.40
2023-04-14T12:38:41.659Z,64.71
2023-04-14T12:41:10.718Z,64.21
2023-04-14T12:43:41.737Z,64.17
2023-04-14T12:46:09.993Z,63.49
2023-04-14T12:48:45.107Z,62.60
2023-04-14T12:51:15.561Z,63.21
2023-04-14T12:53:45.556Z,62.82
2023-04-14T12:56:16.324Z,63.61
2023-04-14T12:58:47.775Z,62.67
2023-04-14T13:01:18.319Z,61.50
2023-04-14T13:03:50.300Z,61.28
2023-04-14T13:06:20.982Z,61.07
2023-04-14T13:08:50.817Z,61.21
2023-04-14T13:11:20.933Z,60.35
2023-04-14T13:13:51.118Z,60.63
2023-04-14T13:16:20.727Z,59.83
2023-04-14T13:18:49.891Z,59.10
2023-04-14T13:21:18.453Z,59.13
2023-04-14T13:23:46.663Z,59.62
2023-04-14T13:26:14.789Z,59.82
2023-04-14T13:28:42.904Z,60.20
2023-04-14T13:31:13.557Z,59.17
2023-04-14T13:33:42.046Z,60.54
2023-04-14T13:36:10.587Z,59.64
2023-04-14T13:38:38.737Z,60.18
2023-04-14T13:41:07.131Z,59.34
2023-04-14T13:43:35.308Z,59.42
2023-04-14T13:46:03.493Z,58.94
2023-04-14T13:48:33.745Z,58.84
2023-04-14T13:51:02.169Z,59.18
2023-04-14T13:53:30.988Z,59.65
2023-04-14T13:55:59.140Z,59.39
2023-04-14T13:58:27.456Z,59.39
2023-04-14T14:00:56.295Z,58.72
2023-04-14T14:03:25.706Z,58.68
2023-04-14T14:05:55.997Z,58.65
2023-04-14T14:08:24.148Z,58.92
2023-04-14T14:10:54.104Z,59.71
2023-04-14T14:13:22.380Z,59.56
2023-04-14T14:15:50.515Z,59.48
2023-04-14T14:18:18.661Z,59.69
2023-04-14T14:20:47.053Z,60.14
2023-04-14T14:23:16.724Z,60.05
2023-04-14T14:25:46.627Z,59.85
2023-04-14T14:28:14.786Z,59.46
2023-04-14T14:30:42.978Z,59.31
2023-04-14T14:33:11.064Z,59.80
2023-04-14T14:35:39.593Z,61.02
2023-04-14T14:38:07.799Z,61.25
2023-04-14T14:40:37.396Z,61.76
2023-04-14T14:43:05.588Z,61.36
2023-04-14T14:45:33.753Z,61.45
2023-04-14T14:48:02.465Z,61.79
2023-04-14T14:50:30.705Z,62.04
2023-04-14T14:52:58.741Z,63.25
2023-04-14T14:55:27.180Z,64.76
2023-04-14T14:57:56.715Z,65.20
2023-04-14T15:00:24.945Z,65.14
2023-04-14T15:02:53.447Z,64.90
2023-04-14T15:05:21.744Z,65.28
2023-04-14T15:07:50.434Z,65.62
2023-04-14T15:10:18.866Z,64.94
2023-04-14T15:12:47.056Z,64.50
2023-04-14T15:15:19.021Z,64.65
2023-04-14T15:17:47.560Z,64.78
2023-04-14T15:20:16.073Z,65.35
2023-04-14T15:22:44.306Z,65.99
2023-04-14T15:25:12.496Z,66.63
2023-04-14T15:27:40.623Z,66.96
2023-04-14T15:30:10.445Z,67.90
2023-04-14T15:32:40.022Z,67.64
2023-04-14T15:35:09.093Z,67.43
2023-04-14T15:37:37.224Z,67.85
2023-04-14T15:40:05.995Z,67.88
2023-04-14T15:42:34.104Z,68.97
2023-04-14T15:45:02.283Z,69.10
2023-04-14T15:47:31.100Z,69.73
2023-04-14T15:50:09.545Z,70.28
2023-04-14T15:52:39.554Z,72.23
2023-04-14T15:55:10.089Z,72.08
2023-04-14T15:57:38.293Z,71.67
2023-04-14T16:00:08.358Z,71.43
2023-04-14T16:02:36.917Z,71.59
2023-04-14T16:05:08.068Z,70.99
2023-04-14T16:07:36.307Z,70.67
2023-04-14T16:10:05.507Z,70.63
2023-04-14T16:12:35.139Z,70.34
2023-04-14T16:15:03.600Z,70.38
2023-04-14T16:17:32.049Z,70.41
2023-04-14T16:20:01.596Z,71.20
2023-04-14T16:22:31.523Z,71.12
2023-04-14T16:24:59.662Z,70.75
2023-04-14T16:27:27.789Z,71.15
2023-04-14T16:29:55.885Z,70.34
2023-04-14T16:32:24.844Z,71.03
2023-04-14T16:34:52.993Z,71.77
2023-04-14T16:37:25.508Z,71.20
2023-04-14T16:39:56.873Z,71.97
2023-04-14T16:42:26.205Z,71.08
2023-04-14T16:44:56.254Z,71.89
2023-04-14T16:47:24.799Z,70.82
2023-04-14T16:49:52.969Z,71.99
2023-04-14T16:52:21.367Z,72.63
2023-04-14T16:54:49.505Z,73.71
2023-04-14T16:57:19.594Z,74.06
2023-04-14T16:59:48.630Z,74.42
2023-04-14T17:02:17.015Z,75.69
2023-04-14T17:04:45.707Z,76.68
2023-04-14T17:07:14.043Z,76.76
2023-04-14T17:09:42.750Z,78.49
2023-04-14T17:12:10.907Z,78.80
2023-04-14T17:14:40.394Z,78.43
2023-04-14T17:17:08.537Z,78.38
2023-04-14T17:19:36.642Z,80.07
2023-04-14T17:22:04.720Z,80.51
2023-04-14T17:24:32.823Z,81.08
2023-04-14T17:27:00.977Z,80.71
2023-04-14T17:29:29.791Z,80.73
2023-04-14T17:32:01.007Z,80.16
2023-04-14T17:34:29.694Z,80.62
2023-04-14T17:36:58.760Z,81.47
2023-04-14T17:39:28.284Z,81.80
2023-04-14T17:41:58.031Z,81.25
2023-04-14T17:44:33.270Z,81.38
2023-04-14T17:47:03.668Z,81.22
2023-04-14T17:49:33.614Z,81.73
2023-04-14T17:52:02.065Z,82.03
2023-04-14T17:54:31.083Z,83.11
2023-04-14T17:56:59.197Z,82.53
2023-04-14T17:59:27.429Z,83.07
2023-04-14T18:01:55.570Z,83.22
2023-04-14T18:04:25.540Z,84.01
2023-04-14T18:06:53.754Z,84.05
2023-04-14T18:09:22.133Z,84.34
2023-04-14T18:11:50.270Z,83.64
2023-04-14T18:14:18.392Z,84.04
2023-04-14T18:16:46.814Z,83.95
2023-04-14T18:19:15.634Z,83.23
2023-04-14T18:21:46.745Z,82.85
2023-04-14T18:26:45.950Z,83.25
2023-04-14T18:29:14.050Z,83.90
2023-04-14T18:31:42.654Z,84.32
2023-04-14T18:34:12.535Z,85.25
2023-04-14T18:36:40.712Z,85.56
2023-04-14T18:39:10.334Z,85.40
2023-04-14T18:41:38.648Z,84.94
2023-04-14T18:44:07.478Z,84.30
2023-04-14T18:46:35.967Z,84.24
2023-04-14T18:49:04.333Z,84.98
2023-04-14T18:51:32.631Z,85.54
2023-04-14T18:54:00.950Z,85.58
2023-04-14T18:56:30.718Z,85.84
2023-04-14T18:58:59.949Z,86.30
2023-04-14T19:01:28.543Z,85.93
2023-04-14T19:03:57.635Z,86.07
2023-04-14T19:06:26.282Z,85.75
2023-04-14T19:08:54.505Z,86.07
2023-04-14T19:11:22.639Z,86.65
2023-04-14T19:13:53.965Z,86.60
2023-04-14T19:16:22.572Z,86.78
2023-04-14T19:18:52.360Z,86.67
2023-04-14T19:21:20.486Z,86.17
2023-04-14T19:23:48.812Z,86.64
2023-04-14T19:26:18.231Z,86.87
2023-04-14T19:28:46.508Z,86.66
2023-04-14T19:31:17.322Z,86.52
2023-04-14T19:33:45.518Z,86.35
2023-04-14T19:36:15.125Z,86.90
2023-04-14T19:38:44.037Z,88.00
2023-04-14T19:41:12.533Z,87.46
2023-04-14T19:43:40.734Z,87.34
2023-04-14T19:46:10.423Z,88.28
2023-04-14T19:48:40.471Z,88.57
2023-04-14T19:51:08.971Z,88.81
2023-04-14T19:53:37.405Z,89.08
2023-04-14T19:56:07.066Z,88.65
2023-04-14T19:58:36.320Z,88.48
2023-04-14T20:01:05.658Z,88.93
2023-04-14T20:03:34.833Z,89.46
2023-04-14T20:06:04.651Z,89.73
2023-04-14T20:08:33.130Z,90.01
2023-04-14T20:11:01.558Z,89.13
2023-04-14T20:13:32.066Z,88.57
2023-04-14T20:16:01.454Z,89.12
2023-04-14T20:18:29.729Z,88.76
2023-04-14T20:20:58.887Z,88.78
2023-04-14T20:23:28.776Z,88.14
2023-04-14T20:25:56.895Z,87.73
2023-04-14T20:28:26.280Z,87.30
2023-04-14T20:30:55.802Z,86.99
2023-04-14T20:33:24.760Z,87.23
2023-04-14T20:35:54.085Z,88.38
2023-04-14T20:38:23.430Z,88.26
2023-04-14T20:40:54.710Z,88.10
2023-04-14T20:43:23.278Z,86.81
2023-04-14T20:45:53.035Z,86.87
2023-04-14T20:48:21.450Z,86.85
2023-04-14T20:50:50.402Z,87.46
2023-04-14T20:53:21.856Z,88.26
2023-04-14T20:55:50.928Z,89.16
2023-04-14T20:58:20.410Z,88.55
2023-04-14T21:00:49.089Z,87.73
2023-04-14T21:03:17.357Z,88.15
2023-04-14T21:05:46.203Z,87.80
2023-04-14T21:08:14.308Z,87.69
2023-04-14T21:11:02.254Z,86.93
2023-04-14T21:15:31.212Z,87.26
2023-04-14T21:16:20.177Z,87.90
2023-04-14T21:18:48.256Z,87.46
2023-04-14T21:21:16.726Z,87.14
2023-04-14T21:23:44.847Z,87.12
2023-04-14T21:26:13.213Z,87.54
2023-04-14T21:28:43.077Z,87.69
2023-04-14T21:31:11.545Z,87.60
2023-04-14T21:33:41.554Z,87.37
2023-04-14T21:36:10.665Z,87.56
2023-04-14T21:38:39.554Z,87.91
2023-04-14T21:41:09.390Z,88.50
2023-04-14T21:43:38.565Z,88.86
2023-04-14T21:46:08.268Z,88.53
2023-04-14T21:48:36.488Z,87.37
2023-04-14T21:51:05.124Z,87.13
2023-04-14T21:53:33.634Z,86.69
2023-04-14T21:56:09.515Z,87.40
2023-04-14T21:58:40.202Z,87.40
2023-04-14T22:01:10.737Z,88.00
2023-04-14T22:03:41.495Z,87.74
2023-04-14T22:06:11.218Z,87.44
2023-04-14T22:08:40.405Z,87.35
2023-04-14T22:11:09.008Z,87.40
2023-04-14T22:13:37.201Z,87.86
2023-04-14T22:16:05.781Z,86.97
2023-04-14T22:18:35.840Z,86.35
2023-04-14T22:21:04.811Z,86.57
2023-04-14T22:23:33.173Z,86.75
2023-04-14T22:26:01.998Z,87.24
2023-04-14T22:28:30.457Z,88.08
2023-04-14T22:30:58.674Z,88.40
2023-04-14T22:33:27.278Z,88.17
2023-04-14T22:35:56.881Z,87.99
2023-04-14T22:38:25.022Z,87.56
2023-04-14T22:40:54.384Z,87.13
2023-04-14T22:43:22.677Z,87.72
2023-04-14T22:45:51.110Z,87.80
2023-04-14T22:48:19.437Z,87.37
2023-04-14T22:50:47.609Z,87.14
2023-04-14T22:53:17.097Z,87.08
2023-04-14T22:55:45.249Z,86.43
2023-04-14T22:58:16.768Z,86.62
2023-04-14T23:00:45.649Z,87.30
2023-04-14T23:03:14.001Z,87.14
2023-04-14T23:05:42.744Z,86.87
2023-04-14T23:08:10.862Z,87.49
2023-04-14T23:10:40.311Z,87.44
2023-04-14T23:13:08.418Z,86.34
2023-04-14T23:15:36.741Z,86.63
2023-04-14T23:18:05.544Z,86.61
2023-04-14T23:20:33.722Z,86.00
2023-04-14T23:23:02.639Z,86.59
2023-04-14T23:25:30.893Z,87.03
2023-04-14T23:28:00.376Z,85.83
2023-04-14T23:30:28.766Z,85.29
2023-04-14T23:32:56.940Z,85.46
2023-04-14T23:35:25.141Z,85.74
2023-04-14T23:37:53.249Z,86.58
2023-04-14T23:40:22.502Z,86.24
2023-04-14T23:42:50.624Z,86.42
2023-04-14T23:45:20.231Z,86.65
2023-04-14T23:47:48.379Z,86.82
2023-04-14T23:50:16.605Z,86.89
2023-04-14T23:52:45.017Z,86.69
2023-04-14T23:55:13.478Z,86.27
2023-04-14T23:57:42.199Z,86.69
